createdAt,value
2022-09-20T00:01:34.099Z,4.22
2022-09-20T00:03:40.437Z,4.35
2022-09-20T00:05:44.354Z,4.50
2022-09-20T00:07:46.298Z,4.00
2022-09-20T00:09:48.321Z,4.47
2022-09-20T00:11:51.602Z,4.13
2022-09-20T00:13:56.190Z,3.88
2022-09-20T00:15:58.344Z,4.00
2022-09-20T00:18:00.302Z,4.13
2022-09-20T00:20:02.554Z,3.88
2022-09-20T00:22:04.524Z,3.85
2022-09-20T00:24:06.789Z,3.60
2022-09-20T00:26:08.735Z,4.15
2022-09-20T00:28:11.123Z,4.05
2022-09-20T00:30:13.534Z,3.72
2022-09-20T00:32:15.536Z,3.47
2022-09-20T00:34:36.240Z,3.88
2022-09-20T00:36:38.249Z,3.30
2022-09-20T00:38:40.220Z,3.80
2022-09-20T00:40:43.495Z,3.85
2022-09-20T00:42:45.471Z,5.07
2022-09-20T00:44:57.529Z,4.38
2022-09-20T00:46:59.651Z,4.22
2022-09-20T00:49:20.481Z,4.93
2022-09-20T00:51:29.353Z,5.05
2022-09-20T00:53:40.191Z,5.45
2022-09-20T00:55:48.108Z,5.70
2022-09-20T00:57:50.087Z,5.50
2022-09-20T00:59:52.088Z,5.65
2022-09-20T01:02:03.186Z,5.90
2022-09-20T01:04:05.292Z,5.75
2022-09-20T01:06:09.998Z,5.95
2022-09-20T01:08:11.945Z,6.30
2022-09-20T01:10:13.922Z,6.93
2022-09-20T01:12:23.730Z,7.18
2022-09-20T01:14:26.072Z,8.05
2022-09-20T01:16:28.204Z,9.27
2022-09-20T01:18:30.228Z,8.85
2022-09-20T01:20:35.933Z,9.25
2022-09-20T01:22:55.570Z,9.07
2022-09-20T01:25:14.730Z,7.75
2022-09-20T01:27:38.459Z,8.68
2022-09-20T01:30:06.623Z,9.55
2022-09-20T01:32:12.972Z,9.75
2022-09-20T01:34:19.038Z,9.70
2022-09-20T01:36:44.400Z,9.50
2022-09-20T01:39:00.511Z,8.98
2022-09-20T01:41:34.407Z,8.95
2022-09-20T01:43:52.962Z,7.65
2022-09-20T01:45:55.096Z,7.50
2022-09-20T01:48:26.523Z,7.68
2022-09-20T01:50:46.795Z,8.55
2022-09-20T01:53:25.916Z,7.72
2022-09-20T01:56:08.115Z,7.57
2022-09-20T01:58:42.144Z,7.88
2022-09-20T02:01:10.764Z,7.53
2022-09-20T02:03:31.373Z,7.43
2022-09-20T02:05:57.402Z,6.78
2022-09-20T02:08:27.208Z,6.50
2022-09-20T02:10:41.983Z,6.70
2022-09-20T02:12:58.941Z,6.28
2022-09-20T02:15:36.525Z,6.07
2022-09-20T02:18:11.601Z,5.68
2022-09-20T02:20:43.528Z,6.53
2022-09-20T02:22:53.384Z,5.57
2022-09-20T02:25:26.255Z,5.00
2022-09-20T02:28:13.544Z,5.10
2022-09-20T02:30:34.878Z,5.40
2022-09-20T02:33:05.200Z,4.72
2022-09-20T02:35:15.410Z,4.38
2022-09-20T02:37:39.815Z,4.45
2022-09-20T02:39:59.761Z,3.80
2022-09-20T02:42:13.413Z,3.72
2022-09-20T02:44:44.114Z,3.65
2022-09-20T02:47:36.931Z,3.28
2022-09-20T02:50:20.898Z,3.20
2022-09-20T02:52:56.413Z,3.13
2022-09-20T02:55:18.887Z,2.65
2022-09-20T02:58:07.346Z,2.63
2022-09-20T03:00:25.334Z,2.90
2022-09-20T03:02:52.287Z,2.60
2022-09-20T03:05:10.223Z,2.40
2022-09-20T03:07:51.338Z,2.65
2022-09-20T03:10:36.732Z,2.80
2022-09-20T03:13:08.827Z,2.25
2022-09-20T03:15:27.275Z,3.15
2022-09-20T03:17:36.605Z,3.78
2022-09-20T03:20:00.694Z,2.67
2022-09-20T03:22:30.260Z,2.88
2022-09-20T03:25:11.943Z,2.70
2022-09-20T03:27:43.830Z,2.72
2022-09-20T03:30:24.692Z,3.00
2022-09-20T03:33:09.550Z,3.08
2022-09-20T03:35:40.276Z,2.70
2022-09-20T03:38:15.034Z,2.88
2022-09-20T03:41:08.843Z,3.08
2022-09-20T03:43:51.543Z,3.17
2022-09-20T03:46:17.227Z,3.28
2022-09-20T03:48:53.187Z,2.92
2022-09-20T03:51:06.951Z,2.83
2022-09-20T03:53:32.950Z,2.85
2022-09-20T03:55:51.399Z,3.20
2022-09-20T03:58:21.454Z,3.03
2022-09-20T04:00:54.336Z,3.20
2022-09-20T04:03:31.344Z,2.97
2022-09-20T04:05:43.452Z,3.40
2022-09-20T04:08:08.734Z,3.40
2022-09-20T04:10:28.758Z,2.85
2022-09-20T04:12:39.295Z,3.25
2022-09-20T04:14:58.098Z,3.10
2022-09-20T04:17:23.076Z,3.00
2022-09-20T04:19:44.729Z,3.38
2022-09-20T04:22:00.807Z,3.30
2022-09-20T04:24:43.163Z,3.28
2022-09-20T04:26:47.984Z,3.50
2022-09-20T04:29:34.121Z,3.13
2022-09-20T04:31:43.097Z,3.50
2022-09-20T04:33:46.117Z,3.20
2022-09-20T04:36:31.552Z,3.97
2022-09-20T04:38:35.728Z,3.72
2022-09-20T04:41:08.675Z,4.13
2022-09-20T04:43:53.724Z,4.75
2022-09-20T04:46:26.657Z,4.55
2022-09-20T04:48:56.666Z,4.35
2022-09-20T04:51:42.709Z,4.47
2022-09-20T04:54:47.737Z,4.63
2022-09-20T04:57:49.010Z,5.10
2022-09-20T05:00:24.520Z,4.75
2022-09-20T05:02:46.987Z,5.70
2022-09-20T05:05:26.948Z,5.35
2022-09-20T05:08:05.141Z,5.00
2022-09-20T05:10:38.089Z,5.80
2022-09-20T05:13:22.182Z,5.63
2022-09-20T05:15:36.383Z,6.03
2022-09-20T05:17:59.723Z,5.50
2022-09-20T05:23:20.463Z,5.38
2022-09-20T05:25:57.366Z,5.70
2022-09-20T05:28:10.509Z,6.10
2022-09-20T05:31:30.448Z,7.38
2022-09-20T05:33:49.096Z,6.43
2022-09-20T05:36:21.509Z,7.03
2022-09-20T05:38:42.888Z,7.30
2022-09-20T05:41:19.493Z,7.53
2022-09-20T05:43:35.290Z,7.65
2022-09-20T05:45:49.915Z,7.40
2022-09-20T05:48:36.529Z,7.97
2022-09-20T05:50:55.735Z,8.27
2022-09-20T05:53:38.803Z,9.45
2022-09-20T05:56:26.105Z,10.40
2022-09-20T05:58:50.917Z,11.30
2022-09-20T06:01:10.542Z,10.00
2022-09-20T06:03:46.647Z,9.98
2022-09-20T06:06:10.704Z,10.60
2022-09-20T06:08:46.056Z,9.13
2022-09-20T06:11:34.755Z,9.82
2022-09-20T06:14:15.241Z,8.82
2022-09-20T06:16:43.266Z,8.35
2022-09-20T06:19:19.846Z,7.53
2022-09-20T06:21:41.999Z,7.85
2022-09-20T06:23:44.194Z,6.72
2022-09-20T06:26:09.325Z,6.72
2022-09-20T06:28:22.316Z,6.00
2022-09-20T06:32:36.278Z,5.75
2022-09-20T06:34:38.219Z,6.13
2022-09-20T06:37:02.809Z,5.43
2022-09-20T06:39:59.544Z,5.10
2022-09-20T06:42:01.701Z,4.80
2022-09-20T06:44:04.050Z,4.70
2022-09-20T06:46:06.307Z,4.55
2022-09-20T06:48:11.709Z,4.53
2022-09-20T06:50:17.331Z,4.45
2022-09-20T06:52:21.553Z,4.50
2022-09-20T06:54:23.585Z,3.78
2022-09-20T06:56:27.876Z,4.30
2022-09-20T06:58:29.828Z,3.83
2022-09-20T07:00:31.790Z,3.80
2022-09-20T07:02:33.891Z,3.90
2022-09-20T07:04:35.996Z,4.18
2022-09-20T07:06:38.016Z,4.43
2022-09-20T07:08:40.014Z,4.43
2022-09-20T07:10:43.438Z,4.30
2022-09-20T07:12:46.392Z,3.95
2022-09-20T07:14:50.600Z,3.58
2022-09-20T07:16:55.949Z,4.28
2022-09-20T07:18:57.986Z,3.70
2022-09-20T07:21:03.255Z,3.45
2022-09-20T07:23:05.273Z,3.33
2022-09-20T07:25:07.970Z,2.60
2022-09-20T07:29:13.681Z,2.38
2022-09-20T07:31:19.490Z,2.10
2022-09-20T07:33:25.141Z,2.20
2022-09-20T07:35:27.133Z,1.80
2022-09-20T07:37:31.848Z,2.10
2022-09-20T07:39:35.982Z,1.83
2022-09-20T07:41:37.994Z,1.60
2022-09-20T07:43:39.959Z,1.77
2022-09-20T07:45:41.960Z,1.80
2022-09-20T07:47:46.553Z,1.90
2022-09-20T07:49:48.522Z,1.58
2022-09-20T07:51:50.743Z,1.40
2022-09-20T07:53:55.191Z,1.20
2022-09-20T07:56:05.955Z,1.45
2022-09-20T07:58:07.904Z,1.20
2022-09-20T08:00:11.460Z,1.40
2022-09-20T08:02:16.816Z,1.13
2022-09-20T08:04:18.890Z,1.55
2022-09-20T08:06:21.892Z,1.30
2022-09-20T08:08:24.014Z,1.17
2022-09-20T08:10:26.893Z,1.30
2022-09-20T08:14:51.428Z,1.30
2022-09-20T08:16:53.460Z,1.08
2022-09-20T08:18:58.940Z,0.80
2022-09-20T08:21:08.430Z,1.15
2022-09-20T08:23:23.498Z,1.38
2022-09-20T08:25:26.084Z,1.30
2022-09-20T08:27:28.056Z,1.20
2022-09-20T08:29:30.086Z,1.05
2022-09-20T08:31:34.456Z,1.80
2022-09-20T08:33:38.086Z,0.90
2022-09-20T08:35:40.065Z,0.82
2022-09-20T08:37:43.709Z,1.13
2022-09-20T08:40:01.172Z,1.08
2022-09-20T08:42:24.214Z,1.00
2022-09-20T08:44:35.087Z,0.90
2022-09-20T08:46:43.390Z,0.93
2022-09-20T08:48:45.901Z,0.90
2022-09-20T08:50:47.857Z,0.82
2022-09-20T08:52:53.887Z,1.10
2022-09-20T08:54:58.124Z,0.90
2022-09-20T08:57:07.199Z,0.90
2022-09-20T08:59:09.545Z,0.70
2022-09-20T09:01:23.443Z,0.80
2022-09-20T09:03:25.428Z,0.85
2022-09-20T09:05:48.461Z,0.70
2022-09-20T09:07:50.449Z,0.80
2022-09-20T09:09:53.785Z,0.70
2022-09-20T09:11:56.962Z,1.20
2022-09-20T09:14:04.594Z,1.92
2022-09-20T09:16:11.767Z,1.27
2022-09-20T09:18:13.988Z,0.80
2022-09-20T09:20:22.610Z,1.23
2022-09-20T09:22:39.833Z,1.05
2022-09-20T09:24:41.858Z,0.90
2022-09-20T09:26:43.830Z,1.02
2022-09-20T09:28:45.807Z,1.05
2022-09-20T09:30:47.909Z,2.10
2022-09-20T09:32:50.038Z,1.02
2022-09-20T09:34:52.002Z,1.90
2022-09-20T09:36:57.028Z,1.58
2022-09-20T09:39:26.446Z,1.30
2022-09-20T09:41:34.409Z,1.30
2022-09-20T09:43:37.485Z,1.88
2022-09-20T09:45:39.635Z,2.40
2022-09-20T09:47:41.694Z,1.50
2022-09-20T09:50:00.281Z,1.50
2022-09-20T09:52:14.529Z,1.50
2022-09-20T09:54:17.818Z,1.77
2022-09-20T09:56:33.452Z,1.60
2022-09-20T09:59:07.985Z,1.75
2022-09-20T10:01:30.040Z,1.38
2022-09-20T10:03:47.162Z,2.30
2022-09-20T10:06:12.750Z,1.42
2022-09-20T10:08:38.937Z,1.00
2022-09-20T10:11:12.540Z,1.25
2022-09-20T10:13:28.204Z,1.35
2022-09-20T10:15:35.858Z,1.27
2022-09-20T10:18:17.306Z,1.25
2022-09-20T10:21:04.792Z,1.42
2022-09-20T10:23:45.026Z,1.30
2022-09-20T10:26:04.884Z,1.10
2022-09-20T10:28:51.928Z,1.38
2022-09-20T10:31:07.552Z,1.02
2022-09-20T10:33:53.561Z,1.00
2022-09-20T10:36:12.745Z,1.08
2022-09-20T10:38:38.529Z,1.10
2022-09-20T10:41:09.945Z,1.00
2022-09-20T10:43:17.317Z,0.85
2022-09-20T10:45:59.116Z,1.10
2022-09-20T10:48:12.377Z,0.82
2022-09-20T10:50:35.652Z,0.93
2022-09-20T10:53:12.008Z,1.58
2022-09-20T10:56:08.438Z,0.90
2022-09-20T10:58:33.443Z,0.80
2022-09-20T11:01:00.858Z,1.08
2022-09-20T11:03:35.824Z,1.00
2022-09-20T11:05:57.929Z,1.10
2022-09-20T11:08:13.085Z,0.95
2022-09-20T11:10:36.288Z,0.93
2022-09-20T11:12:46.166Z,0.80
2022-09-20T11:15:00.016Z,0.80
2022-09-20T11:18:00.714Z,0.90
2022-09-20T11:20:27.248Z,1.00
2022-09-20T11:22:39.956Z,1.00
2022-09-20T11:25:21.649Z,0.95
2022-09-20T11:27:58.992Z,1.75
2022-09-20T11:30:40.913Z,1.10
2022-09-20T11:33:05.160Z,1.10
2022-09-20T11:35:15.928Z,1.20
2022-09-20T11:37:18.235Z,1.10
2022-09-20T11:39:41.767Z,1.10
2022-09-20T11:41:43.761Z,1.33
2022-09-20T11:43:46.055Z,1.20
2022-09-20T11:45:50.201Z,1.38
2022-09-20T11:48:00.071Z,1.30
2022-09-20T11:50:40.127Z,1.10
2022-09-20T11:53:13.806Z,1.20
2022-09-20T11:55:51.255Z,1.20
2022-09-20T11:58:13.599Z,1.10
2022-09-20T12:00:17.843Z,1.10
2022-09-20T12:02:40.781Z,1.10
2022-09-20T12:04:44.732Z,1.20
2022-09-20T12:06:46.699Z,1.60
2022-09-20T12:11:12.429Z,1.00
2022-09-20T12:13:24.461Z,0.88
2022-09-20T12:15:31.028Z,0.80
2022-09-20T12:17:48.134Z,1.17
2022-09-20T12:19:50.102Z,0.80
2022-09-20T12:22:00.562Z,0.80
2022-09-20T12:24:17.290Z,0.63
2022-09-20T12:26:22.141Z,0.90
2022-09-20T12:28:41.767Z,0.90
2022-09-20T12:30:43.809Z,0.88
2022-09-20T12:32:52.217Z,1.00
2022-09-20T12:34:54.184Z,0.90
2022-09-20T12:36:55.991Z,1.00
2022-09-20T12:39:17.527Z,0.85
2022-09-20T12:41:28.741Z,1.13
2022-09-20T12:43:32.034Z,1.20
2022-09-20T12:45:34.032Z,1.13
2022-09-20T12:47:37.216Z,1.05
2022-09-20T12:50:06.803Z,0.90
2022-09-20T12:52:50.459Z,0.80
2022-09-20T12:54:53.579Z,0.95
2022-09-20T12:56:55.528Z,0.98
2022-09-20T12:58:57.512Z,1.20
2022-09-20T13:01:06.859Z,1.20
2022-09-20T13:03:27.232Z,1.02
2022-09-20T13:05:40.721Z,1.20
2022-09-20T13:07:44.240Z,1.10
2022-09-20T13:09:46.631Z,1.10
2022-09-20T13:11:57.801Z,1.30
2022-09-20T13:14:06.242Z,1.10
2022-09-20T13:16:12.734Z,1.20
2022-09-20T13:18:15.512Z,1.33
2022-09-20T13:20:23.802Z,1.33
2022-09-20T13:22:31.372Z,1.00
2022-09-20T13:24:45.338Z,1.10
2022-09-20T13:26:48.197Z,1.10
2022-09-20T13:28:51.724Z,0.90
2022-09-20T13:31:32.666Z,1.00
2022-09-20T13:33:34.980Z,1.25
2022-09-20T13:37:45.071Z,0.88
2022-09-20T13:39:47.235Z,0.80
2022-09-20T13:43:54.189Z,1.20
2022-09-20T13:45:59.650Z,1.00
2022-09-20T13:48:01.929Z,0.80
2022-09-20T13:50:27.502Z,1.02
2022-09-20T13:52:31.220Z,1.00
2022-09-20T13:54:33.804Z,1.02
2022-09-20T13:56:35.759Z,0.93
2022-09-20T13:58:37.741Z,1.17
2022-09-20T14:00:44.979Z,1.50
2022-09-20T14:02:49.076Z,1.58
2022-09-20T14:04:53.790Z,1.30
2022-09-20T14:06:57.666Z,1.40
2022-09-20T14:09:00.232Z,1.30
2022-09-20T14:11:06.658Z,1.35
2022-09-20T14:13:09.608Z,1.00
2022-09-20T14:15:15.216Z,1.10
2022-09-20T14:17:19.381Z,0.90
2022-09-20T14:19:25.825Z,1.02
2022-09-20T14:21:29.489Z,0.82
2022-09-20T14:23:31.957Z,1.00
2022-09-20T14:25:34.586Z,1.00
2022-09-20T14:27:36.648Z,1.27
2022-09-20T14:29:47.020Z,1.00
2022-09-20T14:31:49.083Z,1.10
2022-09-20T14:33:56.071Z,1.00
2022-09-20T14:35:58.036Z,1.00
2022-09-20T14:38:08.503Z,1.02
2022-09-20T14:40:28.562Z,1.40
2022-09-20T14:42:41.451Z,1.10
2022-09-20T14:44:43.396Z,0.80
2022-09-20T14:46:45.396Z,1.20
2022-09-20T14:48:47.379Z,1.10
2022-09-20T14:51:16.321Z,1.95
2022-09-20T14:53:24.983Z,1.10
2022-09-20T14:55:28.633Z,0.88
2022-09-20T14:57:32.310Z,0.90
2022-09-20T14:59:41.810Z,1.10
2022-09-20T15:01:57.902Z,1.20
2022-09-20T15:04:00.366Z,0.90
2022-09-20T15:06:02.343Z,0.90
2022-09-20T15:08:05.485Z,1.15
2022-09-20T15:10:13.208Z,0.90
2022-09-20T15:12:17.768Z,0.80
2022-09-20T15:14:19.733Z,1.13
2022-09-20T15:16:22.009Z,0.90
2022-09-20T15:18:26.769Z,0.90
2022-09-20T15:20:28.829Z,0.80
2022-09-20T15:22:32.193Z,1.00
2022-09-20T15:24:34.173Z,0.93
2022-09-20T15:26:36.125Z,1.30
2022-09-20T15:28:38.129Z,1.13
2022-09-20T15:30:40.601Z,0.90
2022-09-20T15:32:46.434Z,1.00
2022-09-20T15:34:48.382Z,1.23
2022-09-20T15:36:50.830Z,1.20
2022-09-20T15:38:54.226Z,1.10
2022-09-20T15:40:56.185Z,0.90
2022-09-20T15:42:59.513Z,1.10
2022-09-20T15:45:01.475Z,1.23
2022-09-20T15:47:04.547Z,1.02
2022-09-20T15:49:06.744Z,1.00
2022-09-20T15:53:13.360Z,0.82
2022-09-20T15:55:15.398Z,1.20
2022-09-20T15:57:17.364Z,1.00
2022-09-20T15:59:23.219Z,0.95
2022-09-20T16:01:35.650Z,1.10
2022-09-20T16:03:37.749Z,1.00
2022-09-20T16:05:39.730Z,0.90
2022-09-20T16:07:42.432Z,0.90
2022-09-20T16:09:44.436Z,0.75
2022-09-20T16:11:49.631Z,1.05
2022-09-20T16:13:55.911Z,0.80
2022-09-20T16:16:02.094Z,0.80
2022-09-20T16:18:22.714Z,0.90
2022-09-20T16:20:25.175Z,0.80
2022-09-20T16:22:28.069Z,0.90
2022-09-20T16:24:33.187Z,1.15
2022-09-20T16:26:35.846Z,0.90
2022-09-20T16:30:39.996Z,0.88
2022-09-20T16:32:43.056Z,1.00
2022-09-20T16:34:45.748Z,1.10
2022-09-20T16:36:49.240Z,1.10
2022-09-20T16:38:52.529Z,1.00
2022-09-20T16:40:56.048Z,0.93
2022-09-20T16:42:59.056Z,1.00
2022-09-20T16:45:01.483Z,1.10
2022-09-20T16:47:10.818Z,1.85
2022-09-20T16:49:13.861Z,1.38
2022-09-20T16:51:15.945Z,1.20
2022-09-20T16:53:18.272Z,1.17
2022-09-20T16:55:21.199Z,1.30
2022-09-20T16:57:23.262Z,2.10
2022-09-20T16:59:25.229Z,2.08
2022-09-20T17:01:27.699Z,1.95
2022-09-20T17:03:29.734Z,1.95
2022-09-20T17:05:31.730Z,1.40
2022-09-20T17:07:33.737Z,1.67
2022-09-20T17:09:35.723Z,1.55
2022-09-20T17:11:45.997Z,1.23
2022-09-20T17:13:48.062Z,1.45
2022-09-20T17:15:50.577Z,1.50
2022-09-20T17:17:53.473Z,1.73
2022-09-20T17:19:56.109Z,1.33
2022-09-20T17:21:58.713Z,1.27
2022-09-20T17:26:18.813Z,1.00
2022-09-20T17:28:20.863Z,1.10
2022-09-20T17:30:22.822Z,1.40
2022-09-20T17:32:25.196Z,1.48
2022-09-20T17:34:28.159Z,1.00
2022-09-20T17:36:32.762Z,1.33
2022-09-20T17:38:34.921Z,1.30
2022-09-20T17:40:36.986Z,1.30
2022-09-20T17:42:39.334Z,1.13
2022-09-20T17:44:41.375Z,1.10
2022-09-20T17:46:45.361Z,1.13
2022-09-20T17:48:50.578Z,1.60
2022-09-20T17:50:56.315Z,1.45
2022-09-20T17:52:58.288Z,1.40
2022-09-20T17:55:00.239Z,1.30
2022-09-20T17:57:02.227Z,1.70
2022-09-20T17:59:05.489Z,1.48
2022-09-20T18:01:14.193Z,1.67
2022-09-20T18:03:17.559Z,1.48
2022-09-20T18:05:19.572Z,1.35
2022-09-20T18:07:21.541Z,1.30
2022-09-20T18:09:25.045Z,1.70
2022-09-20T18:11:32.274Z,1.95
2022-09-20T18:13:34.666Z,1.73
2022-09-20T18:15:36.637Z,1.92
2022-09-20T18:17:38.644Z,1.77
2022-09-20T18:19:41.311Z,1.60
2022-09-20T18:21:43.642Z,1.90
2022-09-20T18:23:46.202Z,1.63
2022-09-20T18:26:06.849Z,1.80
2022-09-20T18:28:08.983Z,1.83
2022-09-20T18:30:11.467Z,2.00
2022-09-20T18:32:13.463Z,1.98
2022-09-20T18:34:20.382Z,2.30
2022-09-20T18:36:24.536Z,2.83
2022-09-20T18:38:26.669Z,2.65
2022-09-20T18:40:29.816Z,2.30
2022-09-20T18:42:31.809Z,2.15
2022-09-20T18:44:34.072Z,1.73
2022-09-20T18:46:38.142Z,2.13
2022-09-20T18:48:40.452Z,2.72
2022-09-20T18:50:42.479Z,2.10
2022-09-20T18:52:44.599Z,2.40
2022-09-20T18:54:47.206Z,2.40
2022-09-20T18:56:50.506Z,2.70
2022-09-20T18:59:07.153Z,2.47
2022-09-20T19:01:36.666Z,2.33
2022-09-20T19:04:11.340Z,2.63
2022-09-20T19:06:13.414Z,2.95
2022-09-20T19:08:41.204Z,3.85
2022-09-20T19:10:54.661Z,3.70
2022-09-20T19:13:38.313Z,3.42
2022-09-20T19:16:11.563Z,4.25
2022-09-20T19:18:38.850Z,3.75
2022-09-20T19:21:04.853Z,3.90
2022-09-20T19:23:37.818Z,3.70
2022-09-20T19:25:45.048Z,3.95
2022-09-20T19:27:47.436Z,3.83
2022-09-20T19:29:49.777Z,4.13
2022-09-20T19:31:55.561Z,4.75
2022-09-20T19:34:00.111Z,3.80
2022-09-20T19:36:03.296Z,4.63
2022-09-20T19:38:24.827Z,4.53
2022-09-20T19:40:51.820Z,4.55
2022-09-20T19:43:05.515Z,3.78
2022-09-20T19:46:01.022Z,4.85
2022-09-20T19:48:50.382Z,5.38
2022-09-20T19:50:53.152Z,4.90
2022-09-20T19:55:00.910Z,3.97
2022-09-20T19:57:02.905Z,4.45
2022-09-20T19:59:05.679Z,3.92
2022-09-20T20:03:12.585Z,4.28
2022-09-20T20:05:17.414Z,4.40
2022-09-20T20:07:27.796Z,4.47
2022-09-20T20:10:01.228Z,4.57
2022-09-20T20:12:14.568Z,4.55
2022-09-20T20:14:24.948Z,5.38
2022-09-20T20:16:39.891Z,5.20
2022-09-20T20:19:09.060Z,4.35
2022-09-20T20:21:31.603Z,4.30
2022-09-20T20:23:51.615Z,3.72
2022-09-20T20:26:23.455Z,4.72
2022-09-20T20:28:25.824Z,4.25
2022-09-20T20:30:27.755Z,4.85
2022-09-20T20:32:29.695Z,4.70
2022-09-20T20:34:31.649Z,4.60
2022-09-20T20:36:33.621Z,4.03
2022-09-20T20:38:37.665Z,4.10
2022-09-20T20:40:40.839Z,4.63
2022-09-20T20:42:43.880Z,4.55
2022-09-20T20:44:46.140Z,4.80
2022-09-20T20:46:48.640Z,4.43
2022-09-20T20:48:50.615Z,4.18
2022-09-20T20:51:12.069Z,4.82
2022-09-20T20:53:14.500Z,4.05
2022-09-20T20:55:16.529Z,5.88
2022-09-20T20:57:19.053Z,5.78
2022-09-20T20:59:21.016Z,7.28
2022-09-20T21:01:31.261Z,4.32
2022-09-20T21:03:34.094Z,4.10
2022-09-20T21:07:38.281Z,3.85
2022-09-20T21:09:40.250Z,3.95
2022-09-20T21:11:46.723Z,3.65
2022-09-20T21:13:48.902Z,4.50
2022-09-20T21:15:50.878Z,3.80
2022-09-20T21:17:53.284Z,4.05
2022-09-20T21:19:55.199Z,3.92
2022-09-20T21:21:57.143Z,4.30
2022-09-20T21:24:02.539Z,4.30
2022-09-20T21:26:09.289Z,4.13
2022-09-20T21:28:11.251Z,3.55
2022-09-20T21:30:13.793Z,3.83
2022-09-20T21:32:15.786Z,3.78
2022-09-20T21:34:17.770Z,4.38
2022-09-20T21:36:23.641Z,3.72
2022-09-20T21:38:25.619Z,3.75
2022-09-20T21:40:27.625Z,4.30
2022-09-20T21:42:29.678Z,3.58
2022-09-20T21:44:31.837Z,3.95
2022-09-20T21:46:36.043Z,4.18
2022-09-20T21:48:38.673Z,4.22
2022-09-20T21:50:40.619Z,3.92
2022-09-20T21:52:46.586Z,3.70
2022-09-20T21:54:49.001Z,3.72
2022-09-20T21:56:52.964Z,3.60
2022-09-20T21:58:55.219Z,3.75
2022-09-20T22:01:15.155Z,3.58
2022-09-20T22:03:17.168Z,3.72
2022-09-20T22:05:19.157Z,3.67
2022-09-20T22:07:21.194Z,3.72
2022-09-20T22:09:25.028Z,3.78
2022-09-20T22:11:32.437Z,3.63
2022-09-20T22:13:34.969Z,3.75
2022-09-20T22:15:36.966Z,5.80
2022-09-20T22:17:38.956Z,5.35
2022-09-20T22:19:40.972Z,3.85
2022-09-20T22:21:48.166Z,3.97
2022-09-20T22:23:57.346Z,3.53
2022-09-20T22:26:04.958Z,3.20
2022-09-20T22:28:07.011Z,3.60
2022-09-20T22:30:10.143Z,3.55
2022-09-20T22:32:12.092Z,3.50
2022-09-20T22:34:24.893Z,4.32
2022-09-20T22:36:38.312Z,3.97
2022-09-20T22:38:43.829Z,3.22
2022-09-20T22:40:56.213Z,3.38
2022-09-20T22:42:58.162Z,2.67
2022-09-20T22:45:00.413Z,3.22
2022-09-20T22:47:02.405Z,3.10
2022-09-20T22:49:07.786Z,3.13
2022-09-20T22:51:17.831Z,3.30
2022-09-20T22:53:19.780Z,3.40
2022-09-20T22:55:24.406Z,3.45
2022-09-20T22:57:26.988Z,2.95
2022-09-20T22:59:28.948Z,2.78
2022-09-20T23:01:37.352Z,2.67
2022-09-20T23:03:40.751Z,3.30
2022-09-20T23:05:44.593Z,3.10
2022-09-20T23:07:48.672Z,3.17
2022-09-20T23:09:50.648Z,3.35
2022-09-20T23:11:52.590Z,3.25
2022-09-20T23:13:56.482Z,2.87
2022-09-20T23:15:58.639Z,2.65
2022-09-20T23:18:00.621Z,3.03
2022-09-20T23:20:03.768Z,2.80
2022-09-20T23:22:05.745Z,3.40
2022-09-20T23:24:09.717Z,4.38
2022-09-20T23:26:18.628Z,5.00
2022-09-20T23:28:21.873Z,3.50
2022-09-20T23:30:23.824Z,3.30
2022-09-20T23:32:25.935Z,3.08
2022-09-20T23:34:27.915Z,2.47
2022-09-20T23:36:31.403Z,3.03
2022-09-20T23:38:33.345Z,2.97
2022-09-20T23:40:35.410Z,2.78
2022-09-20T23:42:37.539Z,2.40
2022-09-20T23:44:39.583Z,2.70
2022-09-20T23:46:41.568Z,2.60
2022-09-20T23:48:43.928Z,2.40
2022-09-20T23:50:45.870Z,2.40
2022-09-20T23:52:47.851Z,2.37
2022-09-20T23:54:49.831Z,2.90
2022-09-20T23:56:51.765Z,2.67
2022-09-20T23:58:54.168Z,2.67
